sensor_id;sensor_type;location;lat;lon;timestamp;P1;durP1;ratioP1;P2;durP2;ratioP2
53267;SDS011;39156;51.176;6.738;2023-02-16T00:01:48;55.15;;;51.15;;
53267;SDS011;39156;51.176;6.738;2023-02-16T00:04:16;55.88;;;51.72;;
53267;SDS011;39156;51.176;6.738;2023-02-16T00:06:48;57.47;;;53.25;;
53267;SDS011;39156;51.176;6.738;2023-02-16T00:09:15;55.05;;;51.15;;
53267;SDS011;39156;51.176;6.738;2023-02-16T00:11:41;55.90;;;51.80;;
53267;SDS011;39156;51.176;6.738;2023-02-16T00:14:26;55.83;;;51.78;;
53267;SDS011;39156;51.176;6.738;2023-02-16T00:16:53;57.20;;;52.83;;
53267;SDS011;39156;51.176;6.738;2023-02-16T00:19:24;56.20;;;52.10;;
53267;SDS011;39156;51.176;6.738;2023-02-16T00:21:53;55.72;;;51.53;;
53267;SDS011;39156;51.176;6.738;2023-02-16T00:24:22;57.67;;;53.10;;
53267;SDS011;39156;51.176;6.738;2023-02-16T00:26:50;55.53;;;51.53;;
53267;SDS011;39156;51.176;6.738;2023-02-16T00:31:49;56.08;;;51.85;;
53267;SDS011;39156;51.176;6.738;2023-02-16T00:34:21;55.90;;;51.80;;
53267;SDS011;39156;51.176;6.738;2023-02-16T00:36:54;57.28;;;53.15;;
53267;SDS011;39156;51.176;6.738;2023-02-16T00:39:21;55.88;;;51.75;;
53267;SDS011;39156;51.176;6.738;2023-02-16T00:41:49;56.00;;;51.90;;
53267;SDS011;39156;51.176;6.738;2023-02-16T00:44:39;56.33;;;52.17;;
53267;SDS011;39156;51.176;6.738;2023-02-16T00:47:14;56.22;;;51.92;;
53267;SDS011;39156;51.176;6.738;2023-02-16T00:50:16;56.20;;;52.03;;
53267;SDS011;39156;51.176;6.738;2023-02-16T00:52:52;56.03;;;51.78;;
53267;SDS011;39156;51.176;6.738;2023-02-16T00:55:19;56.15;;;52.08;;
53267;SDS011;39156;51.176;6.738;2023-02-16T01:00:26;58.25;;;53.70;;
53267;SDS011;39156;51.176;6.738;2023-02-16T01:02:59;58.53;;;54.10;;
53267;SDS011;39156;51.176;6.738;2023-02-16T01:05:29;58.10;;;53.50;;
53267;SDS011;39156;51.176;6.738;2023-02-16T01:07:55;56.60;;;52.30;;
53267;SDS011;39156;51.176;6.738;2023-02-16T01:10:40;58.20;;;53.88;;
53267;SDS011;39156;51.176;6.738;2023-02-16T01:13:25;57.00;;;52.65;;
53267;SDS011;39156;51.176;6.738;2023-02-16T01:15:53;59.58;;;54.42;;
53267;SDS011;39156;51.176;6.738;2023-02-16T01:18:19;58.45;;;53.80;;
53267;SDS011;39156;51.176;6.738;2023-02-16T01:20:46;58.58;;;54.15;;
53267;SDS011;39156;51.176;6.738;2023-02-16T01:23:12;58.15;;;53.65;;
53267;SDS011;39156;51.176;6.738;2023-02-16T01:25:38;59.28;;;54.78;;
53267;SDS011;39156;51.176;6.738;2023-02-16T01:28:19;56.70;;;52.40;;
53267;SDS011;39156;51.176;6.738;2023-02-16T01:30:48;58.17;;;53.80;;
53267;SDS011;39156;51.176;6.738;2023-02-16T01:33:15;58.60;;;54.03;;
53267;SDS011;39156;51.176;6.738;2023-02-16T01:35:41;57.20;;;52.90;;
53267;SDS011;39156;51.176;6.738;2023-02-16T01:38:18;58.40;;;53.97;;
53267;SDS011;39156;51.176;6.738;2023-02-16T01:43:50;58.38;;;53.88;;
53267;SDS011;39156;51.176;6.738;2023-02-16T01:46:24;57.95;;;53.60;;
53267;SDS011;39156;51.176;6.738;2023-02-16T01:49:23;58.67;;;54.28;;
53267;SDS011;39156;51.176;6.738;2023-02-16T01:51:51;58.92;;;54.50;;
53267;SDS011;39156;51.176;6.738;2023-02-16T01:54:42;59.75;;;55.22;;
53267;SDS011;39156;51.176;6.738;2023-02-16T01:57:37;58.90;;;54.40;;
53267;SDS011;39156;51.176;6.738;2023-02-16T02:00:29;59.33;;;54.60;;
53267;SDS011;39156;51.176;6.738;2023-02-16T02:03:17;59.35;;;54.85;;
53267;SDS011;39156;51.176;6.738;2023-02-16T02:06:12;58.08;;;53.80;;
53267;SDS011;39156;51.176;6.738;2023-02-16T02:11:34;59.13;;;54.60;;
53267;SDS011;39156;51.176;6.738;2023-02-16T02:16:36;58.58;;;54.08;;
53267;SDS011;39156;51.176;6.738;2023-02-16T02:19:03;59.95;;;55.35;;
53267;SDS011;39156;51.176;6.738;2023-02-16T02:36:13;60.35;;;55.80;;
53267;SDS011;39156;51.176;6.738;2023-02-16T02:39:40;58.20;;;53.63;;
53267;SDS011;39156;51.176;6.738;2023-02-16T02:42:32;60.10;;;55.47;;
53267;SDS011;39156;51.176;6.738;2023-02-16T02:45:23;58.92;;;54.33;;
53267;SDS011;39156;51.176;6.738;2023-02-16T02:47:57;60.03;;;55.42;;
53267;SDS011;39156;51.176;6.738;2023-02-16T02:53:04;59.92;;;55.35;;
53267;SDS011;39156;51.176;6.738;2023-02-16T02:55:36;60.80;;;56.15;;
53267;SDS011;39156;51.176;6.738;2023-02-16T02:58:26;59.97;;;55.53;;
53267;SDS011;39156;51.176;6.738;2023-02-16T03:03:44;59.25;;;54.70;;
53267;SDS011;39156;51.176;6.738;2023-02-16T03:06:23;60.30;;;55.72;;
53267;SDS011;39156;51.176;6.738;2023-02-16T03:08:56;60.78;;;56.28;;
53267;SDS011;39156;51.176;6.738;2023-02-16T03:11:28;60.58;;;55.95;;
53267;SDS011;39156;51.176;6.738;2023-02-16T03:14:16;58.88;;;54.45;;
53267;SDS011;39156;51.176;6.738;2023-02-16T03:17:10;59.03;;;54.65;;
53267;SDS011;39156;51.176;6.738;2023-02-16T03:19:57;63.55;;;58.90;;
53267;SDS011;39156;51.176;6.738;2023-02-16T03:22:46;61.47;;;56.50;;
53267;SDS011;39156;51.176;6.738;2023-02-16T03:25:32;60.40;;;55.80;;
53267;SDS011;39156;51.176;6.738;2023-02-16T03:28:21;61.40;;;56.78;;
53267;SDS011;39156;51.176;6.738;2023-02-16T03:31:09;59.80;;;55.38;;
53267;SDS011;39156;51.176;6.738;2023-02-16T03:33:41;61.38;;;56.63;;
53267;SDS011;39156;51.176;6.738;2023-02-16T03:36:07;62.35;;;57.22;;
53267;SDS011;39156;51.176;6.738;2023-02-16T03:38:33;61.00;;;56.20;;
53267;SDS011;39156;51.176;6.738;2023-02-16T03:41:00;59.72;;;55.22;;
53267;SDS011;39156;51.176;6.738;2023-02-16T03:43:27;60.92;;;56.13;;
53267;SDS011;39156;51.176;6.738;2023-02-16T03:45:53;61.40;;;56.50;;
53267;SDS011;39156;51.176;6.738;2023-02-16T03:48:19;60.85;;;56.20;;
53267;SDS011;39156;51.176;6.738;2023-02-16T03:50:45;61.80;;;57.00;;
53267;SDS011;39156;51.176;6.738;2023-02-16T03:53:10;63.13;;;58.25;;
53267;SDS011;39156;51.176;6.738;2023-02-16T03:55:40;61.47;;;56.75;;
53267;SDS011;39156;51.176;6.738;2023-02-16T03:58:10;60.63;;;55.88;;
53267;SDS011;39156;51.176;6.738;2023-02-16T04:00:39;63.45;;;58.15;;
53267;SDS011;39156;51.176;6.738;2023-02-16T04:03:06;61.80;;;57.22;;
53267;SDS011;39156;51.176;6.738;2023-02-16T04:07:59;61.92;;;57.25;;
53267;SDS011;39156;51.176;6.738;2023-02-16T04:10:24;59.80;;;55.00;;
53267;SDS011;39156;51.176;6.738;2023-02-16T04:12:50;60.70;;;56.03;;
53267;SDS011;39156;51.176;6.738;2023-02-16T04:15:18;61.08;;;56.30;;
53267;SDS011;39156;51.176;6.738;2023-02-16T04:17:46;61.03;;;56.22;;
53267;SDS011;39156;51.176;6.738;2023-02-16T04:20:13;61.65;;;56.65;;
53267;SDS011;39156;51.176;6.738;2023-02-16T04:22:45;62.10;;;57.30;;
53267;SDS011;39156;51.176;6.738;2023-02-16T04:25:11;60.95;;;56.15;;
53267;SDS011;39156;51.176;6.738;2023-02-16T04:27:37;60.75;;;56.13;;
53267;SDS011;39156;51.176;6.738;2023-02-16T04:30:06;60.33;;;55.65;;
53267;SDS011;39156;51.176;6.738;2023-02-16T04:32:35;60.08;;;55.50;;
53267;SDS011;39156;51.176;6.738;2023-02-16T04:35:01;62.13;;;57.08;;
53267;SDS011;39156;51.176;6.738;2023-02-16T04:37:27;61.38;;;56.67;;
53267;SDS011;39156;51.176;6.738;2023-02-16T04:39:52;61.97;;;57.30;;
53267;SDS011;39156;51.176;6.738;2023-02-16T04:42:18;63.47;;;58.35;;
53267;SDS011;39156;51.176;6.738;2023-02-16T04:44:44;62.30;;;57.47;;
53267;SDS011;39156;51.176;6.738;2023-02-16T04:47:09;60.22;;;55.63;;
53267;SDS011;39156;51.176;6.738;2023-02-16T04:49:35;60.53;;;55.83;;
53267;SDS011;39156;51.176;6.738;2023-02-16T04:52:02;62.92;;;58.03;;
53267;SDS011;39156;51.176;6.738;2023-02-16T04:54:29;62.60;;;57.95;;
53267;SDS011;39156;51.176;6.738;2023-02-16T04:59:21;61.25;;;56.45;;
53267;SDS011;39156;51.176;6.738;2023-02-16T05:01:47;62.33;;;57.42;;
53267;SDS011;39156;51.176;6.738;2023-02-16T05:04:13;61.92;;;56.92;;
53267;SDS011;39156;51.176;6.738;2023-02-16T05:06:40;62.22;;;57.45;;
53267;SDS011;39156;51.176;6.738;2023-02-16T05:09:06;61.90;;;57.10;;
53267;SDS011;39156;51.176;6.738;2023-02-16T05:11:32;61.92;;;57.10;;
53267;SDS011;39156;51.176;6.738;2023-02-16T05:14:27;63.53;;;58.70;;
53267;SDS011;39156;51.176;6.738;2023-02-16T05:17:13;62.08;;;57.10;;
53267;SDS011;39156;51.176;6.738;2023-02-16T05:19:41;64.60;;;59.45;;
53267;SDS011;39156;51.176;6.738;2023-02-16T05:22:09;61.85;;;57.05;;
53267;SDS011;39156;51.176;6.738;2023-02-16T05:24:35;63.70;;;58.60;;
53267;SDS011;39156;51.176;6.738;2023-02-16T05:27:02;61.80;;;57.15;;
53267;SDS011;39156;51.176;6.738;2023-02-16T05:29:30;64.50;;;59.28;;
53267;SDS011;39156;51.176;6.738;2023-02-16T05:31:56;63.38;;;58.53;;
53267;SDS011;39156;51.176;6.738;2023-02-16T05:34:24;62.60;;;57.70;;
53267;SDS011;39156;51.176;6.738;2023-02-16T05:36:56;61.55;;;56.95;;
53267;SDS011;39156;51.176;6.738;2023-02-16T05:39:22;62.92;;;58.03;;
53267;SDS011;39156;51.176;6.738;2023-02-16T05:41:47;62.78;;;57.80;;
53267;SDS011;39156;51.176;6.738;2023-02-16T05:44:14;63.17;;;58.28;;
53267;SDS011;39156;51.176;6.738;2023-02-16T05:46:40;63.13;;;58.17;;
53267;SDS011;39156;51.176;6.738;2023-02-16T05:49:06;63.08;;;58.22;;
53267;SDS011;39156;51.176;6.738;2023-02-16T05:51:33;63.10;;;58.10;;
53267;SDS011;39156;51.176;6.738;2023-02-16T05:53:59;64.28;;;58.97;;
53267;SDS011;39156;51.176;6.738;2023-02-16T05:56:26;64.15;;;59.15;;
53267;SDS011;39156;51.176;6.738;2023-02-16T05:58:52;62.95;;;58.22;;
53267;SDS011;39156;51.176;6.738;2023-02-16T06:01:18;63.80;;;58.60;;
53267;SDS011;39156;51.176;6.738;2023-02-16T06:03:45;63.53;;;58.63;;
53267;SDS011;39156;51.176;6.738;2023-02-16T06:06:11;62.72;;;58.03;;
53267;SDS011;39156;51.176;6.738;2023-02-16T06:08:38;62.30;;;57.22;;
53267;SDS011;39156;51.176;6.738;2023-02-16T06:11:04;63.17;;;58.13;;
53267;SDS011;39156;51.176;6.738;2023-02-16T06:13:31;63.78;;;58.78;;
53267;SDS011;39156;51.176;6.738;2023-02-16T06:15:57;63.33;;;58.53;;
53267;SDS011;39156;51.176;6.738;2023-02-16T06:18:24;62.78;;;57.80;;
53267;SDS011;39156;51.176;6.738;2023-02-16T06:20:50;62.80;;;57.72;;
53267;SDS011;39156;51.176;6.738;2023-02-16T06:23:17;63.45;;;58.15;;
53267;SDS011;39156;51.176;6.738;2023-02-16T06:25:43;62.58;;;57.65;;
53267;SDS011;39156;51.176;6.738;2023-02-16T06:28:14;62.08;;;56.95;;
53267;SDS011;39156;51.176;6.738;2023-02-16T06:30:39;63.05;;;57.72;;
53267;SDS011;39156;51.176;6.738;2023-02-16T06:33:06;61.55;;;56.65;;
53267;SDS011;39156;51.176;6.738;2023-02-16T06:35:32;61.28;;;56.15;;
53267;SDS011;39156;51.176;6.738;2023-02-16T06:37:58;62.67;;;57.75;;
53267;SDS011;39156;51.176;6.738;2023-02-16T06:40:24;62.65;;;57.78;;
53267;SDS011;39156;51.176;6.738;2023-02-16T06:42:50;60.60;;;56.00;;
53267;SDS011;39156;51.176;6.738;2023-02-16T06:45:16;63.33;;;58.30;;
53267;SDS011;39156;51.176;6.738;2023-02-16T06:47:41;61.92;;;57.13;;
53267;SDS011;39156;51.176;6.738;2023-02-16T06:50:07;63.05;;;58.25;;
53267;SDS011;39156;51.176;6.738;2023-02-16T06:55:01;61.05;;;56.38;;
53267;SDS011;39156;51.176;6.738;2023-02-16T06:57:27;61.85;;;56.80;;
53267;SDS011;39156;51.176;6.738;2023-02-16T06:59:53;61.70;;;56.83;;
53267;SDS011;39156;51.176;6.738;2023-02-16T07:02:20;64.10;;;59.08;;
53267;SDS011;39156;51.176;6.738;2023-02-16T07:04:46;61.90;;;57.10;;
53267;SDS011;39156;51.176;6.738;2023-02-16T07:07:12;62.22;;;57.33;;
53267;SDS011;39156;51.176;6.738;2023-02-16T07:09:37;60.72;;;56.15;;
53267;SDS011;39156;51.176;6.738;2023-02-16T07:12:03;62.60;;;57.38;;
53267;SDS011;39156;51.176;6.738;2023-02-16T07:14:31;62.42;;;57.65;;
53267;SDS011;39156;51.176;6.738;2023-02-16T07:16:57;62.05;;;57.15;;
53267;SDS011;39156;51.176;6.738;2023-02-16T07:19:27;60.97;;;56.00;;
53267;SDS011;39156;51.176;6.738;2023-02-16T07:21:56;60.80;;;56.28;;
53267;SDS011;39156;51.176;6.738;2023-02-16T07:24:22;60.40;;;55.88;;
53267;SDS011;39156;51.176;6.738;2023-02-16T07:26:48;60.03;;;55.53;;
53267;SDS011;39156;51.176;6.738;2023-02-16T07:29:13;60.72;;;55.88;;
53267;SDS011;39156;51.176;6.738;2023-02-16T07:31:39;61.85;;;56.75;;
53267;SDS011;39156;51.176;6.738;2023-02-16T07:34:05;60.70;;;55.85;;
53267;SDS011;39156;51.176;6.738;2023-02-16T07:36:30;60.20;;;55.17;;
53267;SDS011;39156;51.176;6.738;2023-02-16T07:38:56;60.28;;;55.63;;
53267;SDS011;39156;51.176;6.738;2023-02-16T07:41:25;60.55;;;55.78;;
53267;SDS011;39156;51.176;6.738;2023-02-16T07:43:51;58.83;;;54.30;;
53267;SDS011;39156;51.176;6.738;2023-02-16T07:46:17;63.15;;;57.67;;
53267;SDS011;39156;51.176;6.738;2023-02-16T07:48:45;61.70;;;56.67;;
53267;SDS011;39156;51.176;6.738;2023-02-16T07:51:21;61.65;;;56.75;;
53267;SDS011;39156;51.176;6.738;2023-02-16T07:53:48;60.80;;;56.05;;
53267;SDS011;39156;51.176;6.738;2023-02-16T07:56:18;59.80;;;55.30;;
53267;SDS011;39156;51.176;6.738;2023-02-16T07:58:47;60.45;;;55.78;;
53267;SDS011;39156;51.176;6.738;2023-02-16T08:01:12;59.67;;;55.05;;
53267;SDS011;39156;51.176;6.738;2023-02-16T08:03:39;60.17;;;55.30;;
53267;SDS011;39156;51.176;6.738;2023-02-16T08:06:05;59.58;;;54.63;;
53267;SDS011;39156;51.176;6.738;2023-02-16T08:08:32;60.70;;;56.00;;
53267;SDS011;39156;51.176;6.738;2023-02-16T08:10:59;59.10;;;54.50;;
53267;SDS011;39156;51.176;6.738;2023-02-16T08:13:32;60.97;;;56.17;;
53267;SDS011;39156;51.176;6.738;2023-02-16T08:15:58;60.28;;;55.67;;
53267;SDS011;39156;51.176;6.738;2023-02-16T08:18:23;59.70;;;55.15;;
53267;SDS011;39156;51.176;6.738;2023-02-16T08:20:49;59.70;;;54.88;;
53267;SDS011;39156;51.176;6.738;2023-02-16T08:23:15;61.35;;;56.55;;
53267;SDS011;39156;51.176;6.738;2023-02-16T08:25:40;60.47;;;55.28;;
53267;SDS011;39156;51.176;6.738;2023-02-16T08:28:07;57.78;;;53.40;;
53267;SDS011;39156;51.176;6.738;2023-02-16T08:30:33;58.63;;;54.13;;
53267;SDS011;39156;51.176;6.738;2023-02-16T08:33:00;59.85;;;55.10;;
53267;SDS011;39156;51.176;6.738;2023-02-16T08:35:28;60.75;;;55.90;;
53267;SDS011;39156;51.176;6.738;2023-02-16T08:37:56;57.30;;;52.83;;
53267;SDS011;39156;51.176;6.738;2023-02-16T08:40:26;58.33;;;53.72;;
53267;SDS011;39156;51.176;6.738;2023-02-16T08:42:52;59.50;;;54.80;;
53267;SDS011;39156;51.176;6.738;2023-02-16T08:45:18;56.45;;;52.10;;
53267;SDS011;39156;51.176;6.738;2023-02-16T08:47:43;58.25;;;53.67;;
53267;SDS011;39156;51.176;6.738;2023-02-16T08:50:09;59.75;;;54.95;;
53267;SDS011;39156;51.176;6.738;2023-02-16T08:52:35;56.95;;;52.30;;
53267;SDS011;39156;51.176;6.738;2023-02-16T08:55:02;57.15;;;52.95;;
53267;SDS011;39156;51.176;6.738;2023-02-16T08:57:28;54.17;;;49.78;;
53267;SDS011;39156;51.176;6.738;2023-02-16T08:59:58;56.58;;;51.78;;
53267;SDS011;39156;51.176;6.738;2023-02-16T09:02:42;57.55;;;52.95;;
53267;SDS011;39156;51.176;6.738;2023-02-16T09:05:08;55.35;;;50.92;;
53267;SDS011;39156;51.176;6.738;2023-02-16T09:07:34;57.08;;;52.50;;
53267;SDS011;39156;51.176;6.738;2023-02-16T09:10:00;56.40;;;51.50;;
53267;SDS011;39156;51.176;6.738;2023-02-16T09:12:28;55.03;;;50.47;;
53267;SDS011;39156;51.176;6.738;2023-02-16T09:14:54;55.42;;;51.15;;
53267;SDS011;39156;51.176;6.738;2023-02-16T09:17:21;53.78;;;49.22;;
53267;SDS011;39156;51.176;6.738;2023-02-16T09:19:47;52.63;;;48.42;;
53267;SDS011;39156;51.176;6.738;2023-02-16T09:22:13;50.83;;;46.78;;
53267;SDS011;39156;51.176;6.738;2023-02-16T09:24:39;50.25;;;46.33;;
53267;SDS011;39156;51.176;6.738;2023-02-16T09:27:04;53.50;;;49.42;;
53267;SDS011;39156;51.176;6.738;2023-02-16T09:29:30;52.97;;;48.88;;
53267;SDS011;39156;51.176;6.738;2023-02-16T09:31:56;52.72;;;48.50;;
53267;SDS011;39156;51.176;6.738;2023-02-16T09:34:22;53.63;;;49.10;;
53267;SDS011;39156;51.176;6.738;2023-02-16T09:36:48;52.75;;;48.53;;
53267;SDS011;39156;51.176;6.738;2023-02-16T09:39:15;55.50;;;50.90;;
53267;SDS011;39156;51.176;6.738;2023-02-16T09:41:51;51.63;;;47.88;;
53267;SDS011;39156;51.176;6.738;2023-02-16T09:46:57;54.30;;;50.15;;
53267;SDS011;39156;51.176;6.738;2023-02-16T09:49:30;52.95;;;48.95;;
53267;SDS011;39156;51.176;6.738;2023-02-16T09:54:34;53.40;;;49.10;;
53267;SDS011;39156;51.176;6.738;2023-02-16T09:57:15;57.10;;;52.60;;
53267;SDS011;39156;51.176;6.738;2023-02-16T10:00:28;55.75;;;51.33;;
53267;SDS011;39156;51.176;6.738;2023-02-16T10:06:23;52.67;;;48.53;;
53267;SDS011;39156;51.176;6.738;2023-02-16T10:09:22;54.35;;;50.08;;
53267;SDS011;39156;51.176;6.738;2023-02-16T10:12:12;57.03;;;52.58;;
53267;SDS011;39156;51.176;6.738;2023-02-16T10:14:48;56.38;;;52.08;;
53267;SDS011;39156;51.176;6.738;2023-02-16T10:20:03;54.55;;;50.10;;
53267;SDS011;39156;51.176;6.738;2023-02-16T10:22:53;54.60;;;50.50;;
53267;SDS011;39156;51.176;6.738;2023-02-16T10:25:44;57.33;;;52.83;;
53267;SDS011;39156;51.176;6.738;2023-02-16T10:28:47;56.15;;;51.72;;
53267;SDS011;39156;51.176;6.738;2023-02-16T10:31:22;54.72;;;50.60;;
53267;SDS011;39156;51.176;6.738;2023-02-16T10:37:24;56.30;;;51.42;;
53267;SDS011;39156;51.176;6.738;2023-02-16T10:40:50;54.80;;;50.45;;
53267;SDS011;39156;51.176;6.738;2023-02-16T10:43:42;54.95;;;50.65;;
53267;SDS011;39156;51.176;6.738;2023-02-16T10:46:16;54.50;;;50.20;;
53267;SDS011;39156;51.176;6.738;2023-02-16T10:48:50;57.03;;;52.55;;
53267;SDS011;39156;51.176;6.738;2023-02-16T10:51:18;56.88;;;52.20;;
53267;SDS011;39156;51.176;6.738;2023-02-16T10:53:51;55.55;;;51.17;;
53267;SDS011;39156;51.176;6.738;2023-02-16T10:59:15;55.03;;;50.72;;
53267;SDS011;39156;51.176;6.738;2023-02-16T11:02:23;54.28;;;49.90;;
53267;SDS011;39156;51.176;6.738;2023-02-16T11:04:53;57.50;;;53.00;;
53267;SDS011;39156;51.176;6.738;2023-02-16T11:07:24;56.72;;;52.03;;
53267;SDS011;39156;51.176;6.738;2023-02-16T11:09:53;58.42;;;53.70;;
53267;SDS011;39156;51.176;6.738;2023-02-16T11:17:27;55.33;;;50.97;;
53267;SDS011;39156;51.176;6.738;2023-02-16T11:20:02;55.22;;;50.53;;
53267;SDS011;39156;51.176;6.738;2023-02-16T11:22:50;53.97;;;49.85;;
53267;SDS011;39156;51.176;6.738;2023-02-16T11:28:05;57.28;;;52.67;;
53267;SDS011;39156;51.176;6.738;2023-02-16T11:30:40;56.63;;;52.03;;
53267;SDS011;39156;51.176;6.738;2023-02-16T11:33:23;56.85;;;52.05;;
53267;SDS011;39156;51.176;6.738;2023-02-16T11:35:51;56.50;;;51.95;;
53267;SDS011;39156;51.176;6.738;2023-02-16T11:40:58;53.30;;;49.38;;
53267;SDS011;39156;51.176;6.738;2023-02-16T11:43:29;54.17;;;49.78;;
53267;SDS011;39156;51.176;6.738;2023-02-16T11:46:13;54.08;;;50.00;;
53267;SDS011;39156;51.176;6.738;2023-02-16T11:48:43;54.25;;;49.95;;
53267;SDS011;39156;51.176;6.738;2023-02-16T11:51:09;55.60;;;51.40;;
53267;SDS011;39156;51.176;6.738;2023-02-16T11:53:43;57.28;;;52.58;;
53267;SDS011;39156;51.176;6.738;2023-02-16T11:56:23;54.92;;;50.70;;
53267;SDS011;39156;51.176;6.738;2023-02-16T11:59:05;54.05;;;49.95;;
53267;SDS011;39156;51.176;6.738;2023-02-16T12:01:52;55.25;;;50.72;;
53267;SDS011;39156;51.176;6.738;2023-02-16T12:07:44;55.05;;;50.60;;
53267;SDS011;39156;51.176;6.738;2023-02-16T12:11:10;54.40;;;50.30;;
53267;SDS011;39156;51.176;6.738;2023-02-16T12:14:33;56.42;;;52.25;;
53267;SDS011;39156;51.176;6.738;2023-02-16T12:20:19;53.88;;;49.78;;
53267;SDS011;39156;51.176;6.738;2023-02-16T12:22:50;55.05;;;50.42;;
53267;SDS011;39156;51.176;6.738;2023-02-16T12:25:36;52.83;;;48.75;;
53267;SDS011;39156;51.176;6.738;2023-02-16T12:28:18;57.85;;;53.10;;
53267;SDS011;39156;51.176;6.738;2023-02-16T12:34:16;54.53;;;50.25;;
53267;SDS011;39156;51.176;6.738;2023-02-16T12:45:36;52.60;;;48.60;;
53267;SDS011;39156;51.176;6.738;2023-02-16T12:48:14;54.25;;;50.20;;
53267;SDS011;39156;51.176;6.738;2023-02-16T12:51:10;57.10;;;52.95;;
53267;SDS011;39156;51.176;6.738;2023-02-16T12:53:45;56.13;;;51.72;;
53267;SDS011;39156;51.176;6.738;2023-02-16T12:56:48;55.35;;;51.00;;
53267;SDS011;39156;51.176;6.738;2023-02-16T12:59:29;52.60;;;48.58;;
53267;SDS011;39156;51.176;6.738;2023-02-16T13:02:14;52.88;;;48.58;;
53267;SDS011;39156;51.176;6.738;2023-02-16T13:05:01;55.33;;;51.13;;
53267;SDS011;39156;51.176;6.738;2023-02-16T13:07:54;55.35;;;51.13;;
53267;SDS011;39156;51.176;6.738;2023-02-16T13:10:46;54.95;;;50.65;;
53267;SDS011;39156;51.176;6.738;2023-02-16T13:13:23;53.72;;;49.63;;
53267;SDS011;39156;51.176;6.738;2023-02-16T13:18:40;55.22;;;51.08;;
53267;SDS011;39156;51.176;6.738;2023-02-16T13:26:52;55.15;;;50.90;;
53267;SDS011;39156;51.176;6.738;2023-02-16T13:30:22;52.13;;;47.97;;
53267;SDS011;39156;51.176;6.738;2023-02-16T13:44:53;52.53;;;48.17;;
53267;SDS011;39156;51.176;6.738;2023-02-16T13:47:26;55.05;;;50.17;;
53267;SDS011;39156;51.176;6.738;2023-02-16T13:49:57;54.92;;;50.67;;
53267;SDS011;39156;51.176;6.738;2023-02-16T13:52:31;53.10;;;49.10;;
53267;SDS011;39156;51.176;6.738;2023-02-16T13:55:02;53.58;;;49.67;;
53267;SDS011;39156;51.176;6.738;2023-02-16T14:00:55;54.33;;;49.95;;
53267;SDS011;39156;51.176;6.738;2023-02-16T14:05:55;52.53;;;48.35;;
53267;SDS011;39156;51.176;6.738;2023-02-16T14:17:15;51.28;;;47.10;;
53267;SDS011;39156;51.176;6.738;2023-02-16T14:22:42;52.88;;;48.50;;
53267;SDS011;39156;51.176;6.738;2023-02-16T14:33:00;51.47;;;47.55;;
53267;SDS011;39156;51.176;6.738;2023-02-16T14:35:34;50.92;;;46.92;;
53267;SDS011;39156;51.176;6.738;2023-02-16T14:38:06;49.47;;;45.55;;
53267;SDS011;39156;51.176;6.738;2023-02-16T14:43:22;49.92;;;46.33;;
53267;SDS011;39156;51.176;6.738;2023-02-16T14:51:19;51.47;;;47.42;;
53267;SDS011;39156;51.176;6.738;2023-02-16T14:57:21;47.97;;;44.67;;
53267;SDS011;39156;51.176;6.738;2023-02-16T15:03:14;46.38;;;43.17;;
53267;SDS011;39156;51.176;6.738;2023-02-16T15:05:57;48.22;;;44.72;;
53267;SDS011;39156;51.176;6.738;2023-02-16T15:08:28;45.40;;;42.33;;
53267;SDS011;39156;51.176;6.738;2023-02-16T15:11:01;47.40;;;43.92;;
53267;SDS011;39156;51.176;6.738;2023-02-16T15:13:45;46.72;;;43.28;;
53267;SDS011;39156;51.176;6.738;2023-02-16T15:16:16;46.17;;;42.58;;
53267;SDS011;39156;51.176;6.738;2023-02-16T15:19:01;47.20;;;43.45;;
53267;SDS011;39156;51.176;6.738;2023-02-16T15:21:39;46.67;;;43.47;;
53267;SDS011;39156;51.176;6.738;2023-02-16T15:24:05;48.00;;;44.33;;
53267;SDS011;39156;51.176;6.738;2023-02-16T15:26:54;45.70;;;42.42;;
53267;SDS011;39156;51.176;6.738;2023-02-16T15:29:22;48.25;;;44.58;;
53267;SDS011;39156;51.176;6.738;2023-02-16T15:31:51;45.15;;;41.90;;
53267;SDS011;39156;51.176;6.738;2023-02-16T15:34:31;45.92;;;42.85;;
53267;SDS011;39156;51.176;6.738;2023-02-16T15:36:59;45.83;;;42.53;;
53267;SDS011;39156;51.176;6.738;2023-02-16T15:44:53;48.88;;;44.85;;
53267;SDS011;39156;51.176;6.738;2023-02-16T15:49:46;47.58;;;43.97;;
53267;SDS011;39156;51.176;6.738;2023-02-16T15:52:26;44.57;;;41.67;;
53267;SDS011;39156;51.176;6.738;2023-02-16T15:54:58;46.33;;;43.25;;
53267;SDS011;39156;51.176;6.738;2023-02-16T15:57:28;46.20;;;42.85;;
53267;SDS011;39156;51.176;6.738;2023-02-16T16:02:39;44.45;;;41.47;;
53267;SDS011;39156;51.176;6.738;2023-02-16T16:05:18;47.47;;;44.17;;
53267;SDS011;39156;51.176;6.738;2023-02-16T16:07:56;44.67;;;41.63;;
53267;SDS011;39156;51.176;6.738;2023-02-16T16:10:25;45.25;;;42.03;;
53267;SDS011;39156;51.176;6.738;2023-02-16T16:12:57;43.50;;;40.47;;
53267;SDS011;39156;51.176;6.738;2023-02-16T16:15:26;44.05;;;41.17;;
53267;SDS011;39156;51.176;6.738;2023-02-16T16:17:54;44.95;;;41.80;;
53267;SDS011;39156;51.176;6.738;2023-02-16T16:20:25;42.80;;;40.00;;
53267;SDS011;39156;51.176;6.738;2023-02-16T16:22:59;45.72;;;42.60;;
53267;SDS011;39156;51.176;6.738;2023-02-16T16:28:03;44.08;;;40.90;;
53267;SDS011;39156;51.176;6.738;2023-02-16T16:30:33;43.05;;;40.17;;
53267;SDS011;39156;51.176;6.738;2023-02-16T16:33:05;43.70;;;40.80;;
53267;SDS011;39156;51.176;6.738;2023-02-16T16:35:46;43.00;;;39.90;;
53267;SDS011;39156;51.176;6.738;2023-02-16T16:38:24;44.72;;;41.58;;
53267;SDS011;39156;51.176;6.738;2023-02-16T16:40:58;43.15;;;40.17;;
53267;SDS011;39156;51.176;6.738;2023-02-16T16:43:28;43.95;;;41.00;;
53267;SDS011;39156;51.176;6.738;2023-02-16T16:46:11;45.65;;;42.70;;
53267;SDS011;39156;51.176;6.738;2023-02-16T16:48:47;42.20;;;38.95;;
53267;SDS011;39156;51.176;6.738;2023-02-16T16:56:25;43.00;;;39.90;;
53267;SDS011;39156;51.176;6.738;2023-02-16T16:58:53;43.53;;;40.65;;
53267;SDS011;39156;51.176;6.738;2023-02-16T17:01:21;42.78;;;39.97;;
53267;SDS011;39156;51.176;6.738;2023-02-16T17:03:52;41.03;;;38.35;;
53267;SDS011;39156;51.176;6.738;2023-02-16T17:06:29;43.90;;;41.03;;
53267;SDS011;39156;51.176;6.738;2023-02-16T17:08:54;41.17;;;38.50;;
53267;SDS011;39156;51.176;6.738;2023-02-16T17:11:31;42.63;;;39.83;;
53267;SDS011;39156;51.176;6.738;2023-02-16T17:14:07;44.42;;;41.42;;
53267;SDS011;39156;51.176;6.738;2023-02-16T17:16:42;40.78;;;38.03;;
53267;SDS011;39156;51.176;6.738;2023-02-16T17:19:11;42.08;;;39.47;;
53267;SDS011;39156;51.176;6.738;2023-02-16T17:21:38;44.22;;;40.60;;
53267;SDS011;39156;51.176;6.738;2023-02-16T17:24:04;38.53;;;36.13;;
53267;SDS011;39156;51.176;6.738;2023-02-16T17:26:31;43.40;;;40.53;;
53267;SDS011;39156;51.176;6.738;2023-02-16T17:28:58;40.58;;;37.97;;
53267;SDS011;39156;51.176;6.738;2023-02-16T17:31:23;42.85;;;39.88;;
53267;SDS011;39156;51.176;6.738;2023-02-16T17:33:49;40.55;;;37.78;;
53267;SDS011;39156;51.176;6.738;2023-02-16T17:36:15;40.42;;;37.72;;
53267;SDS011;39156;51.176;6.738;2023-02-16T17:38:42;42.42;;;39.53;;
53267;SDS011;39156;51.176;6.738;2023-02-16T17:41:21;39.35;;;36.72;;